»·PEaware :: N8227V KFAT-KMPI

N8227V :: KFAT-KMPI

FLIGHT INFORMATION

Flight Status: Arrived
Operator: Privately registered:
United States
More flights under this callsign
Pilot: Andrew R. (27652)
Aircraft: PIPER PA-28R-201 ARROW
(P28R)
More flights by this aircraft type
Origin: KFAT Fresno Yosemite Intl
United States
Destination: KMPI Mariposa-Yosemite
United States
More flights between these airports :: More routes between these airports
Route: YOSE3 FRA V459 COGOL
File this flight plan on PilotEdge
Remarks:
Altitude:
(Current/Filed)
8,000ft
Speed:
(Current/Filed)
130kts
Departed: 13-Sep-21 11:45 AM
Arrived: 13-Sep-21 12:19 PM
Distance/Time
Traveled:
47nm/0:33
Distance/Time
To Go:
Arrived

Flight Plot

Page will automatically refresh every two minutes.

Flight plan parsing failed; only flown route is shown


Map Options




Map Legend


Flown Route
Filed Route
Departure Airport
Arrival Airport
Navaid (VOR, NDB)
Fix

Horizontal Profiles

Position Reports

Time Latitude Longitude Heading Altitude Ground
Speed
13-Sep-21 11:14 36.771748 -119.717695 295 336ft 0kts
13-Sep-21 11:15 36.771748 -119.717695 295 336ft 0kts
13-Sep-21 11:16 36.771748 -119.717695 295 336ft 0kts
13-Sep-21 11:17 36.771748 -119.717695 295 336ft 0kts
13-Sep-21 11:18 36.771748 -119.717695 295 336ft 0kts
13-Sep-21 11:19 36.771748 -119.717695 295 336ft 0kts
13-Sep-21 11:20 36.771748 -119.717695 295 336ft 0kts
13-Sep-21 11:21 36.771748 -119.717695 295 336ft 0kts
13-Sep-21 11:22 36.771748 -119.717695 295 336ft 0kts
13-Sep-21 11:23 36.771748 -119.717695 295 336ft 0kts
13-Sep-21 11:24 36.771748 -119.717695 295 336ft 0kts
13-Sep-21 11:25 36.771748 -119.717695 295 336ft 0kts
13-Sep-21 11:26 36.771748 -119.717695 295 336ft 0kts
13-Sep-21 11:27 36.771748 -119.717695 295 336ft 0kts
13-Sep-21 11:28 36.771748 -119.717695 295 336ft 0kts
13-Sep-21 11:29 36.772092 -119.716160 65 336ft 11kts
13-Sep-21 11:30 36.769372 -119.710436 73 336ft 4kts
13-Sep-21 11:32 36.769424 -119.710368 34 336ft 0kts
13-Sep-21 11:33 36.769424 -119.710368 34 336ft 0kts
13-Sep-21 11:34 36.769424 -119.710368 34 336ft 0kts
13-Sep-21 11:35 36.769424 -119.710368 34 336ft 0kts
13-Sep-21 11:36 36.769424 -119.710368 34 336ft 0kts
13-Sep-21 11:37 36.769424 -119.710368 34 336ft 0kts
13-Sep-21 11:38 36.769424 -119.710368 34 336ft 0kts
13-Sep-21 11:39 36.769424 -119.710368 34 336ft 0kts
13-Sep-21 11:40 36.769424 -119.710368 34 336ft 0kts
13-Sep-21 11:41 36.769424 -119.710368 34 336ft 0kts
13-Sep-21 11:42 36.769424 -119.710368 34 336ft 0kts
13-Sep-21 11:43 36.769424 -119.710368 34 336ft 0kts
13-Sep-21 11:44 36.769424 -119.710368 34 336ft 0kts
13-Sep-21 11:45 36.774166 -119.716993 306 436ft 93kts
13-Sep-21 11:46 36.791488 -119.744751 308 1649ft 103kts
13-Sep-21 11:47 36.807048 -119.775078 303 2755ft 106kts
13-Sep-21 11:48 36.823726 -119.805726 303 3738ft 106kts
13-Sep-21 11:49 36.840001 -119.835123 305 4908ft 101kts
13-Sep-21 11:50 36.858610 -119.862273 310 5981ft 105kts
13-Sep-21 11:51 36.873829 -119.891767 301 7095ft 97kts
13-Sep-21 11:52 36.887371 -119.920898 296 8084ft 98kts
13-Sep-21 11:53 36.906467 -119.926234 56 8971ft 97kts
13-Sep-21 11:54 36.919679 -119.896931 60 9818ft 97kts
13-Sep-21 11:55 36.933935 -119.863997 60 10157ft 121kts
13-Sep-21 11:56 36.953480 -119.826785 42 10123ft 126kts
13-Sep-21 11:56 36.976708 -119.802989 38 10035ft 134kts
13-Sep-21 11:57 37.002535 -119.770165 49 9995ft 130kts
13-Sep-21 11:59 37.028749 -119.728944 50 10017ft 128kts
13-Sep-21 12:00 37.051411 -119.694768 52 10059ft 128kts
13-Sep-21 12:01 37.073618 -119.659835 52 10091ft 128kts
13-Sep-21 12:01 37.091487 -119.630214 32 10065ft 130kts
13-Sep-21 12:02 37.124010 -119.640362 319 10051ft 129kts
13-Sep-21 12:03 37.150289 -119.670525 317 10083ft 129kts
13-Sep-21 12:05 37.183888 -119.702230 321 9672ft 129kts
13-Sep-21 12:05 37.209396 -119.724302 327 8920ft 138kts
13-Sep-21 12:06 37.239168 -119.752228 320 8513ft 120kts
13-Sep-21 12:07 37.267245 -119.779473 323 8455ft 138kts
13-Sep-21 12:08 37.298658 -119.800746 337 8213ft 118kts
13-Sep-21 12:09 37.330165 -119.818711 335 7295ft 124kts
13-Sep-21 12:10 37.359603 -119.836711 333 6515ft 114kts
13-Sep-21 12:11 37.388376 -119.854834 319 5735ft 112kts
13-Sep-21 12:12 37.411422 -119.882222 315 5446ft 119kts
13-Sep-21 12:13 37.434835 -119.912546 310 5224ft 126kts
13-Sep-21 12:14 37.457686 -119.945958 312 4733ft 120kts
13-Sep-21 12:15 37.476089 -119.978617 305 4181ft 105kts
13-Sep-21 12:16 37.493815 -120.004637 345 3435ft 88kts
13-Sep-21 12:17 37.508417 -120.021282 278 2600ft 67kts
13-Sep-21 12:18 37.511110 -120.041276 277 2233ft 27kts
13-Sep-21 12:19 37.510242 -120.040307 188 2224ft 10kts

Navigation Log

Ident Type
Flight plan parsing failed, navigation log unavailable